sensor_id;sensor_type;location;lat;lon;timestamp;P1;durP1;ratioP1;P2;durP2;ratioP2
27644;SDS011;15054;57.152;-2.118;2022-09-27T00:01:08;7.22;;;0.95;;
27644;SDS011;15054;57.152;-2.118;2022-09-27T00:03:37;4.38;;;0.85;;
27644;SDS011;15054;57.152;-2.118;2022-09-27T00:08:44;4.72;;;1.50;;
27644;SDS011;15054;57.152;-2.118;2022-09-27T00:11:17;1.83;;;0.65;;
27644;SDS011;15054;57.152;-2.118;2022-09-27T00:13:46;3.78;;;1.08;;
27644;SDS011;15054;57.152;-2.118;2022-09-27T00:16:13;5.30;;;1.42;;
27644;SDS011;15054;57.152;-2.118;2022-09-27T00:18:40;5.72;;;0.88;;
27644;SDS011;15054;57.152;-2.118;2022-09-27T00:21:09;4.57;;;1.00;;
27644;SDS011;15054;57.152;-2.118;2022-09-27T00:23:38;1.83;;;0.60;;
27644;SDS011;15054;57.152;-2.118;2022-09-27T00:26:05;2.10;;;0.70;;
27644;SDS011;15054;57.152;-2.118;2022-09-27T00:28:34;6.32;;;0.68;;
27644;SDS011;15054;57.152;-2.118;2022-09-27T00:31:01;2.72;;;0.60;;
27644;SDS011;15054;57.152;-2.118;2022-09-27T00:33:29;4.85;;;0.90;;
27644;SDS011;15054;57.152;-2.118;2022-09-27T00:36:02;7.78;;;1.17;;
27644;SDS011;15054;57.152;-2.118;2022-09-27T00:38:30;1.73;;;0.40;;
27644;SDS011;15054;57.152;-2.118;2022-09-27T00:40:58;4.32;;;0.70;;
27644;SDS011;15054;57.152;-2.118;2022-09-27T00:43:25;4.50;;;0.93;;
27644;SDS011;15054;57.152;-2.118;2022-09-27T00:46:07;1.20;;;0.50;;
27644;SDS011;15054;57.152;-2.118;2022-09-27T00:48:35;1.83;;;0.80;;
27644;SDS011;15054;57.152;-2.118;2022-09-27T00:51:03;3.88;;;0.50;;
27644;SDS011;15054;57.152;-2.118;2022-09-27T00:56:04;2.60;;;0.52;;
27644;SDS011;15054;57.152;-2.118;2022-09-27T00:58:37;1.52;;;0.60;;
27644;SDS011;15054;57.152;-2.118;2022-09-27T01:01:09;4.70;;;0.50;;
27644;SDS011;15054;57.152;-2.118;2022-09-27T01:03:47;8.27;;;0.77;;
27644;SDS011;15054;57.152;-2.118;2022-09-27T01:06:29;6.85;;;0.90;;
27644;SDS011;15054;57.152;-2.118;2022-09-27T01:08:56;7.32;;;1.10;;
27644;SDS011;15054;57.152;-2.118;2022-09-27T01:11:41;6.13;;;1.08;;
27644;SDS011;15054;57.152;-2.118;2022-09-27T01:17:50;5.18;;;0.57;;
27644;SDS011;15054;57.152;-2.118;2022-09-27T01:34:47;3.97;;;0.80;;
27644;SDS011;15054;57.152;-2.118;2022-09-27T01:37:37;4.73;;;0.70;;
27644;SDS011;15054;57.152;-2.118;2022-09-27T01:40:17;8.38;;;0.82;;
27644;SDS011;15054;57.152;-2.118;2022-09-27T01:43:18;8.15;;;1.27;;
27644;SDS011;15054;57.152;-2.118;2022-09-27T01:45:53;4.55;;;0.95;;
27644;SDS011;15054;57.152;-2.118;2022-09-27T01:48:47;6.50;;;1.10;;
27644;SDS011;15054;57.152;-2.118;2022-09-27T01:51:42;4.75;;;0.93;;
27644;SDS011;15054;57.152;-2.118;2022-09-27T01:54:15;4.97;;;0.60;;
27644;SDS011;15054;57.152;-2.118;2022-09-27T01:57:06;7.47;;;1.42;;
27644;SDS011;15054;57.152;-2.118;2022-09-27T01:59:39;3.90;;;0.90;;
27644;SDS011;15054;57.152;-2.118;2022-09-27T02:02:32;3.92;;;0.73;;
27644;SDS011;15054;57.152;-2.118;2022-09-27T02:05:28;4.38;;;1.00;;
27644;SDS011;15054;57.152;-2.118;2022-09-27T02:11:23;4.93;;;0.63;;
27644;SDS011;15054;57.152;-2.118;2022-09-27T02:14:02;4.72;;;0.70;;
27644;SDS011;15054;57.152;-2.118;2022-09-27T02:25:56;4.63;;;0.75;;
27644;SDS011;15054;57.152;-2.118;2022-09-27T02:31:17;2.22;;;0.63;;
27644;SDS011;15054;57.152;-2.118;2022-09-27T02:33:59;3.70;;;0.80;;
27644;SDS011;15054;57.152;-2.118;2022-09-27T02:36:47;7.28;;;1.08;;
27644;SDS011;15054;57.152;-2.118;2022-09-27T02:39:16;2.10;;;0.50;;
27644;SDS011;15054;57.152;-2.118;2022-09-27T02:41:44;5.32;;;1.30;;
27644;SDS011;15054;57.152;-2.118;2022-09-27T02:44:12;3.28;;;0.82;;
27644;SDS011;15054;57.152;-2.118;2022-09-27T03:02:08;3.33;;;0.85;;
27644;SDS011;15054;57.152;-2.118;2022-09-27T03:05:15;5.15;;;1.05;;
27644;SDS011;15054;57.152;-2.118;2022-09-27T03:07:46;9.35;;;1.63;;
27644;SDS011;15054;57.152;-2.118;2022-09-27T03:10:22;2.05;;;0.65;;
27644;SDS011;15054;57.152;-2.118;2022-09-27T03:12:52;3.28;;;0.77;;
27644;SDS011;15054;57.152;-2.118;2022-09-27T03:15:19;4.32;;;1.08;;
27644;SDS011;15054;57.152;-2.118;2022-09-27T03:17:58;3.88;;;0.70;;
27644;SDS011;15054;57.152;-2.118;2022-09-27T03:20:59;4.97;;;1.98;;
27644;SDS011;15054;57.152;-2.118;2022-09-27T03:23:26;2.63;;;0.57;;
27644;SDS011;15054;57.152;-2.118;2022-09-27T03:25:53;4.80;;;1.02;;
27644;SDS011;15054;57.152;-2.118;2022-09-27T03:28:21;4.13;;;0.80;;
27644;SDS011;15054;57.152;-2.118;2022-09-27T03:30:48;5.25;;;0.85;;
27644;SDS011;15054;57.152;-2.118;2022-09-27T03:33:51;3.63;;;1.00;;
27644;SDS011;15054;57.152;-2.118;2022-09-27T03:36:18;3.53;;;0.75;;
27644;SDS011;15054;57.152;-2.118;2022-09-27T03:38:45;5.03;;;0.85;;
27644;SDS011;15054;57.152;-2.118;2022-09-27T03:41:16;3.97;;;0.90;;
27644;SDS011;15054;57.152;-2.118;2022-09-27T03:43:43;5.25;;;0.70;;
27644;SDS011;15054;57.152;-2.118;2022-09-27T03:46:11;4.32;;;0.90;;
27644;SDS011;15054;57.152;-2.118;2022-09-27T03:48:38;6.57;;;0.90;;
27644;SDS011;15054;57.152;-2.118;2022-09-27T03:51:05;5.35;;;0.55;;
27644;SDS011;15054;57.152;-2.118;2022-09-27T03:53:33;6.55;;;0.70;;
27644;SDS011;15054;57.152;-2.118;2022-09-27T03:56:01;3.42;;;0.60;;
27644;SDS011;15054;57.152;-2.118;2022-09-27T03:58:28;2.25;;;1.00;;
27644;SDS011;15054;57.152;-2.118;2022-09-27T04:00:56;4.22;;;0.52;;
27644;SDS011;15054;57.152;-2.118;2022-09-27T04:03:25;4.40;;;0.63;;
27644;SDS011;15054;57.152;-2.118;2022-09-27T04:06:21;2.70;;;0.52;;
27644;SDS011;15054;57.152;-2.118;2022-09-27T04:08:49;5.95;;;0.57;;
27644;SDS011;15054;57.152;-2.118;2022-09-27T04:11:17;3.65;;;1.23;;
27644;SDS011;15054;57.152;-2.118;2022-09-27T04:13:45;1.55;;;0.50;;
27644;SDS011;15054;57.152;-2.118;2022-09-27T04:16:16;1.50;;;0.50;;
27644;SDS011;15054;57.152;-2.118;2022-09-27T04:19:02;1.15;;;0.65;;
27644;SDS011;15054;57.152;-2.118;2022-09-27T04:21:38;2.65;;;0.50;;
27644;SDS011;15054;57.152;-2.118;2022-09-27T04:24:08;5.38;;;0.98;;
27644;SDS011;15054;57.152;-2.118;2022-09-27T04:26:40;1.92;;;0.40;;
27644;SDS011;15054;57.152;-2.118;2022-09-27T04:29:11;2.80;;;0.50;;
27644;SDS011;15054;57.152;-2.118;2022-09-27T04:31:45;0.73;;;0.30;;
27644;SDS011;15054;57.152;-2.118;2022-09-27T04:34:28;1.70;;;0.50;;
27644;SDS011;15054;57.152;-2.118;2022-09-27T04:37:20;2.65;;;0.40;;
27644;SDS011;15054;57.152;-2.118;2022-09-27T04:39:51;3.70;;;0.50;;
27644;SDS011;15054;57.152;-2.118;2022-09-27T04:42:18;1.35;;;0.40;;
27644;SDS011;15054;57.152;-2.118;2022-09-27T04:44:45;3.00;;;0.50;;
27644;SDS011;15054;57.152;-2.118;2022-09-27T04:47:13;3.05;;;0.47;;
27644;SDS011;15054;57.152;-2.118;2022-09-27T04:49:41;3.58;;;0.40;;
27644;SDS011;15054;57.152;-2.118;2022-09-27T04:52:08;4.43;;;0.40;;
27644;SDS011;15054;57.152;-2.118;2022-09-27T04:54:35;1.40;;;0.40;;
27644;SDS011;15054;57.152;-2.118;2022-09-27T04:57:12;1.33;;;0.20;;
27644;SDS011;15054;57.152;-2.118;2022-09-27T04:59:41;1.45;;;0.32;;
27644;SDS011;15054;57.152;-2.118;2022-09-27T05:02:10;0.90;;;0.40;;
27644;SDS011;15054;57.152;-2.118;2022-09-27T05:05:15;1.83;;;0.35;;
27644;SDS011;15054;57.152;-2.118;2022-09-27T05:07:43;2.05;;;0.65;;
27644;SDS011;15054;57.152;-2.118;2022-09-27T05:10:22;1.58;;;0.20;;
27644;SDS011;15054;57.152;-2.118;2022-09-27T05:12:49;0.75;;;0.30;;
27644;SDS011;15054;57.152;-2.118;2022-09-27T05:15:16;1.33;;;0.50;;
27644;SDS011;15054;57.152;-2.118;2022-09-27T05:18:04;2.92;;;0.40;;
27644;SDS011;15054;57.152;-2.118;2022-09-27T05:20:52;1.20;;;0.32;;
27644;SDS011;15054;57.152;-2.118;2022-09-27T05:23:28;4.13;;;0.47;;
27644;SDS011;15054;57.152;-2.118;2022-09-27T05:25:55;1.52;;;0.30;;
27644;SDS011;15054;57.152;-2.118;2022-09-27T05:28:23;0.28;;;0.20;;
27644;SDS011;15054;57.152;-2.118;2022-09-27T05:30:50;1.95;;;0.28;;
27644;SDS011;15054;57.152;-2.118;2022-09-27T05:33:20;1.25;;;0.40;;
27644;SDS011;15054;57.152;-2.118;2022-09-27T05:35:51;2.05;;;0.30;;
27644;SDS011;15054;57.152;-2.118;2022-09-27T05:38:27;3.40;;;0.40;;
27644;SDS011;15054;57.152;-2.118;2022-09-27T05:40:58;0.35;;;0.20;;
27644;SDS011;15054;57.152;-2.118;2022-09-27T05:43:25;1.77;;;0.15;;
27644;SDS011;15054;57.152;-2.118;2022-09-27T05:45:57;0.70;;;0.20;;
27644;SDS011;15054;57.152;-2.118;2022-09-27T05:48:25;0.90;;;0.22;;
27644;SDS011;15054;57.152;-2.118;2022-09-27T05:50:59;1.23;;;0.20;;
27644;SDS011;15054;57.152;-2.118;2022-09-27T05:53:26;1.77;;;0.30;;
27644;SDS011;15054;57.152;-2.118;2022-09-27T05:55:53;0.50;;;0.20;;
27644;SDS011;15054;57.152;-2.118;2022-09-27T05:58:30;2.78;;;0.25;;
27644;SDS011;15054;57.152;-2.118;2022-09-27T06:01:09;1.55;;;0.30;;
27644;SDS011;15054;57.152;-2.118;2022-09-27T06:03:55;0.63;;;0.20;;
27644;SDS011;15054;57.152;-2.118;2022-09-27T06:06:41;1.75;;;0.17;;
27644;SDS011;15054;57.152;-2.118;2022-09-27T06:09:09;1.75;;;0.30;;
27644;SDS011;15054;57.152;-2.118;2022-09-27T06:11:37;1.75;;;0.30;;
27644;SDS011;15054;57.152;-2.118;2022-09-27T06:14:11;2.67;;;0.70;;
27644;SDS011;15054;57.152;-2.118;2022-09-27T06:17:04;0.95;;;0.30;;
27644;SDS011;15054;57.152;-2.118;2022-09-27T06:19:34;1.83;;;0.45;;
27644;SDS011;15054;57.152;-2.118;2022-09-27T06:22:01;2.75;;;0.40;;
27644;SDS011;15054;57.152;-2.118;2022-09-27T06:24:37;1.83;;;0.40;;
27644;SDS011;15054;57.152;-2.118;2022-09-27T06:27:13;0.77;;;0.40;;
27644;SDS011;15054;57.152;-2.118;2022-09-27T06:29:54;1.40;;;0.63;;
27644;SDS011;15054;57.152;-2.118;2022-09-27T06:32:36;2.63;;;0.60;;
27644;SDS011;15054;57.152;-2.118;2022-09-27T06:35:16;1.45;;;0.50;;
27644;SDS011;15054;57.152;-2.118;2022-09-27T06:37:44;2.05;;;0.32;;
27644;SDS011;15054;57.152;-2.118;2022-09-27T06:40:12;2.28;;;0.38;;
27644;SDS011;15054;57.152;-2.118;2022-09-27T06:43:06;2.60;;;0.40;;
27644;SDS011;15054;57.152;-2.118;2022-09-27T06:48:39;4.00;;;0.57;;
27644;SDS011;15054;57.152;-2.118;2022-09-27T06:51:13;1.40;;;0.32;;
27644;SDS011;15054;57.152;-2.118;2022-09-27T06:53:42;1.63;;;0.40;;
27644;SDS011;15054;57.152;-2.118;2022-09-27T06:56:09;3.33;;;0.68;;
27644;SDS011;15054;57.152;-2.118;2022-09-27T06:58:56;2.83;;;1.02;;
27644;SDS011;15054;57.152;-2.118;2022-09-27T07:01:43;4.03;;;0.93;;
27644;SDS011;15054;57.152;-2.118;2022-09-27T07:04:29;2.80;;;0.60;;
27644;SDS011;15054;57.152;-2.118;2022-09-27T07:07:24;2.67;;;0.47;;
27644;SDS011;15054;57.152;-2.118;2022-09-27T07:09:51;3.95;;;0.50;;
27644;SDS011;15054;57.152;-2.118;2022-09-27T07:12:19;7.10;;;0.80;;
27644;SDS011;15054;57.152;-2.118;2022-09-27T07:14:47;2.47;;;0.73;;
27644;SDS011;15054;57.152;-2.118;2022-09-27T07:17:16;2.90;;;0.50;;
27644;SDS011;15054;57.152;-2.118;2022-09-27T07:19:45;1.88;;;0.50;;
27644;SDS011;15054;57.152;-2.118;2022-09-27T07:22:13;3.67;;;0.50;;
27644;SDS011;15054;57.152;-2.118;2022-09-27T07:24:43;1.10;;;0.20;;
27644;SDS011;15054;57.152;-2.118;2022-09-27T07:27:12;1.73;;;0.47;;
27644;SDS011;15054;57.152;-2.118;2022-09-27T07:29:40;1.40;;;0.50;;
27644;SDS011;15054;57.152;-2.118;2022-09-27T07:32:07;4.97;;;0.88;;
27644;SDS011;15054;57.152;-2.118;2022-09-27T07:34:36;1.30;;;0.50;;
27644;SDS011;15054;57.152;-2.118;2022-09-27T07:37:04;1.85;;;0.40;;
27644;SDS011;15054;57.152;-2.118;2022-09-27T07:39:36;1.85;;;0.30;;
27644;SDS011;15054;57.152;-2.118;2022-09-27T07:42:05;4.30;;;0.45;;
27644;SDS011;15054;57.152;-2.118;2022-09-27T07:44:34;2.80;;;0.50;;
27644;SDS011;15054;57.152;-2.118;2022-09-27T07:47:20;1.52;;;0.30;;
27644;SDS011;15054;57.152;-2.118;2022-09-27T07:50:22;3.33;;;0.43;;
27644;SDS011;15054;57.152;-2.118;2022-09-27T07:53:20;1.65;;;0.32;;
27644;SDS011;15054;57.152;-2.118;2022-09-27T07:55:55;1.65;;;0.20;;
27644;SDS011;15054;57.152;-2.118;2022-09-27T07:58:24;1.95;;;0.45;;
27644;SDS011;15054;57.152;-2.118;2022-09-27T08:00:55;2.15;;;0.40;;
27644;SDS011;15054;57.152;-2.118;2022-09-27T08:03:25;1.05;;;0.30;;
27644;SDS011;15054;57.152;-2.118;2022-09-27T08:05:52;1.70;;;0.40;;
27644;SDS011;15054;57.152;-2.118;2022-09-27T08:08:20;0.85;;;0.30;;
27644;SDS011;15054;57.152;-2.118;2022-09-27T08:10:49;0.30;;;0.30;;
27644;SDS011;15054;57.152;-2.118;2022-09-27T08:13:17;1.95;;;0.80;;
27644;SDS011;15054;57.152;-2.118;2022-09-27T08:15:47;1.77;;;0.43;;
27644;SDS011;15054;57.152;-2.118;2022-09-27T08:18:16;1.35;;;0.47;;
27644;SDS011;15054;57.152;-2.118;2022-09-27T08:20:57;0.80;;;0.22;;
27644;SDS011;15054;57.152;-2.118;2022-09-27T08:23:37;1.45;;;0.45;;
27644;SDS011;15054;57.152;-2.118;2022-09-27T08:26:28;1.00;;;0.20;;
27644;SDS011;15054;57.152;-2.118;2022-09-27T08:29:09;1.15;;;0.30;;
27644;SDS011;15054;57.152;-2.118;2022-09-27T08:31:41;0.55;;;0.20;;
27644;SDS011;15054;57.152;-2.118;2022-09-27T08:34:08;0.70;;;0.30;;
27644;SDS011;15054;57.152;-2.118;2022-09-27T08:36:35;0.25;;;0.13;;
27644;SDS011;15054;57.152;-2.118;2022-09-27T08:39:03;0.13;;;0.10;;
27644;SDS011;15054;57.152;-2.118;2022-09-27T08:42:02;0.22;;;0.20;;
27644;SDS011;15054;57.152;-2.118;2022-09-27T08:50:30;0.50;;;0.22;;
27644;SDS011;15054;57.152;-2.118;2022-09-27T08:55:42;0.70;;;0.20;;
27644;SDS011;15054;57.152;-2.118;2022-09-27T08:58:25;2.13;;;0.30;;
27644;SDS011;15054;57.152;-2.118;2022-09-27T09:01:04;0.52;;;0.20;;
27644;SDS011;15054;57.152;-2.118;2022-09-27T09:03:51;0.63;;;0.25;;
27644;SDS011;15054;57.152;-2.118;2022-09-27T09:06:22;0.77;;;0.20;;
27644;SDS011;15054;57.152;-2.118;2022-09-27T09:11:45;0.20;;;0.20;;
27644;SDS011;15054;57.152;-2.118;2022-09-27T09:14:47;0.75;;;0.30;;
27644;SDS011;15054;57.152;-2.118;2022-09-27T09:23:52;1.80;;;0.40;;
27644;SDS011;15054;57.152;-2.118;2022-09-27T09:26:26;2.58;;;0.40;;
27644;SDS011;15054;57.152;-2.118;2022-09-27T09:31:41;0.52;;;0.20;;
27644;SDS011;15054;57.152;-2.118;2022-09-27T09:34:19;0.50;;;0.30;;
27644;SDS011;15054;57.152;-2.118;2022-09-27T09:37:10;0.88;;;0.20;;
27644;SDS011;15054;57.152;-2.118;2022-09-27T09:39:53;1.05;;;0.30;;
27644;SDS011;15054;57.152;-2.118;2022-09-27T09:42:34;0.60;;;0.20;;
27644;SDS011;15054;57.152;-2.118;2022-09-27T09:45:12;2.72;;;0.30;;
27644;SDS011;15054;57.152;-2.118;2022-09-27T09:50:49;0.40;;;0.40;;
27644;SDS011;15054;57.152;-2.118;2022-09-27T09:53:28;0.98;;;0.25;;
27644;SDS011;15054;57.152;-2.118;2022-09-27T09:56:01;0.65;;;0.40;;
27644;SDS011;15054;57.152;-2.118;2022-09-27T09:58:41;0.32;;;0.20;;
27644;SDS011;15054;57.152;-2.118;2022-09-27T10:01:20;0.32;;;0.10;;
27644;SDS011;15054;57.152;-2.118;2022-09-27T10:03:54;1.42;;;0.20;;
27644;SDS011;15054;57.152;-2.118;2022-09-27T10:06:23;0.77;;;0.47;;
27644;SDS011;15054;57.152;-2.118;2022-09-27T10:08:51;0.10;;;0.10;;
27644;SDS011;15054;57.152;-2.118;2022-09-27T10:11:34;1.02;;;0.17;;
27644;SDS011;15054;57.152;-2.118;2022-09-27T10:14:15;0.50;;;0.20;;
27644;SDS011;15054;57.152;-2.118;2022-09-27T10:17:02;0.95;;;0.15;;
27644;SDS011;15054;57.152;-2.118;2022-09-27T10:19:35;0.95;;;0.50;;
27644;SDS011;15054;57.152;-2.118;2022-09-27T10:22:25;0.95;;;0.30;;
27644;SDS011;15054;57.152;-2.118;2022-09-27T10:25:05;2.90;;;0.60;;
27644;SDS011;15054;57.152;-2.118;2022-09-27T10:27:49;0.80;;;0.20;;
27644;SDS011;15054;57.152;-2.118;2022-09-27T10:32:57;0.55;;;0.17;;
27644;SDS011;15054;57.152;-2.118;2022-09-27T10:35:41;1.55;;;0.40;;
27644;SDS011;15054;57.152;-2.118;2022-09-27T10:38:34;0.20;;;0.10;;
27644;SDS011;15054;57.152;-2.118;2022-09-27T10:41:42;0.45;;;0.10;;
27644;SDS011;15054;57.152;-2.118;2022-09-27T10:44:27;0.10;;;0.10;;
27644;SDS011;15054;57.152;-2.118;2022-09-27T10:47:25;0.22;;;0.10;;
27644;SDS011;15054;57.152;-2.118;2022-09-27T10:50:05;1.23;;;0.10;;
27644;SDS011;15054;57.152;-2.118;2022-09-27T10:53:18;0.90;;;0.20;;
27644;SDS011;15054;57.152;-2.118;2022-09-27T10:55:57;1.02;;;0.40;;
27644;SDS011;15054;57.152;-2.118;2022-09-27T10:58:26;1.33;;;0.22;;
27644;SDS011;15054;57.152;-2.118;2022-09-27T11:00:59;0.52;;;0.17;;
27644;SDS011;15054;57.152;-2.118;2022-09-27T11:03:44;0.57;;;0.25;;
27644;SDS011;15054;57.152;-2.118;2022-09-27T11:08:52;0.82;;;0.13;;
27644;SDS011;15054;57.152;-2.118;2022-09-27T11:11:25;0.73;;;0.20;;
27644;SDS011;15054;57.152;-2.118;2022-09-27T11:22:04;1.13;;;0.17;;
27644;SDS011;15054;57.152;-2.118;2022-09-27T11:27:39;0.65;;;0.10;;
27644;SDS011;15054;57.152;-2.118;2022-09-27T11:35:55;1.20;;;0.40;;
27644;SDS011;15054;57.152;-2.118;2022-09-27T11:38:50;1.42;;;0.20;;
27644;SDS011;15054;57.152;-2.118;2022-09-27T12:04:48;0.47;;;0.10;;
27644;SDS011;15054;57.152;-2.118;2022-09-27T12:10:11;0.90;;;0.55;;
27644;SDS011;15054;57.152;-2.118;2022-09-27T12:12:43;0.13;;;0.08;;
27644;SDS011;15054;57.152;-2.118;2022-09-27T12:15:18;0.22;;;0.10;;
27644;SDS011;15054;57.152;-2.118;2022-09-27T12:17:49;0.10;;;0.08;;
27644;SDS011;15054;57.152;-2.118;2022-09-27T12:20:22;0.00;;;0.00;;
27644;SDS011;15054;57.152;-2.118;2022-09-27T12:26:33;1.13;;;0.20;;
27644;SDS011;15054;57.152;-2.118;2022-09-27T12:29:11;0.68;;;0.10;;
27644;SDS011;15054;57.152;-2.118;2022-09-27T12:31:45;1.55;;;0.20;;
27644;SDS011;15054;57.152;-2.118;2022-09-27T12:39:37;0.90;;;0.22;;
27644;SDS011;15054;57.152;-2.118;2022-09-27T12:42:21;1.63;;;0.20;;
27644;SDS011;15054;57.152;-2.118;2022-09-27T12:44:56;0.93;;;0.20;;
27644;SDS011;15054;57.152;-2.118;2022-09-27T12:52:49;0.38;;;0.20;;
27644;SDS011;15054;57.152;-2.118;2022-09-27T13:01:15;0.63;;;0.20;;
27644;SDS011;15054;57.152;-2.118;2022-09-27T13:12:35;1.95;;;0.35;;
27644;SDS011;15054;57.152;-2.118;2022-09-27T13:15:05;0.63;;;0.15;;
27644;SDS011;15054;57.152;-2.118;2022-09-27T13:25:59;1.75;;;0.30;;
27644;SDS011;15054;57.152;-2.118;2022-09-27T13:34:49;3.92;;;0.30;;
27644;SDS011;15054;57.152;-2.118;2022-09-27T13:37:51;0.70;;;0.20;;
27644;SDS011;15054;57.152;-2.118;2022-09-27T13:40:29;2.67;;;0.38;;
27644;SDS011;15054;57.152;-2.118;2022-09-27T13:43:18;3.30;;;0.30;;
27644;SDS011;15054;57.152;-2.118;2022-09-27T13:46:03;1.10;;;0.63;;
27644;SDS011;15054;57.152;-2.118;2022-09-27T13:51:48;0.68;;;0.20;;
27644;SDS011;15054;57.152;-2.118;2022-09-27T13:54:39;1.67;;;0.38;;
27644;SDS011;15054;57.152;-2.118;2022-09-27T14:00:57;2.38;;;0.20;;
27644;SDS011;15054;57.152;-2.118;2022-09-27T14:03:23;2.38;;;0.22;;
27644;SDS011;15054;57.152;-2.118;2022-09-27T14:06:04;2.53;;;0.30;;
27644;SDS011;15054;57.152;-2.118;2022-09-27T14:08:42;1.17;;;0.38;;
27644;SDS011;15054;57.152;-2.118;2022-09-27T14:11:20;1.50;;;0.20;;
27644;SDS011;15054;57.152;-2.118;2022-09-27T14:14:00;1.35;;;0.35;;
27644;SDS011;15054;57.152;-2.118;2022-09-27T14:16:34;0.95;;;0.13;;
27644;SDS011;15054;57.152;-2.118;2022-09-27T14:19:08;0.75;;;0.20;;
27644;SDS011;15054;57.152;-2.118;2022-09-27T14:21:44;2.17;;;0.30;;
27644;SDS011;15054;57.152;-2.118;2022-09-27T14:27:22;1.17;;;0.20;;
27644;SDS011;15054;57.152;-2.118;2022-09-27T14:30:00;0.13;;;0.10;;
27644;SDS011;15054;57.152;-2.118;2022-09-27T14:32:52;2.15;;;0.25;;
27644;SDS011;15054;57.152;-2.118;2022-09-27T14:35:34;1.33;;;0.17;;
27644;SDS011;15054;57.152;-2.118;2022-09-27T14:38:20;1.00;;;0.30;;
27644;SDS011;15054;57.152;-2.118;2022-09-27T14:41:11;0.65;;;0.20;;
27644;SDS011;15054;57.152;-2.118;2022-09-27T14:43:42;0.95;;;0.20;;
27644;SDS011;15054;57.152;-2.118;2022-09-27T14:49:09;0.77;;;0.10;;
27644;SDS011;15054;57.152;-2.118;2022-09-27T14:51:52;0.93;;;0.20;;
27644;SDS011;15054;57.152;-2.118;2022-09-27T14:54:24;0.45;;;0.20;;
27644;SDS011;15054;57.152;-2.118;2022-09-27T14:56:52;0.10;;;0.10;;
27644;SDS011;15054;57.152;-2.118;2022-09-27T15:01:56;0.67;;;0.10;;
27644;SDS011;15054;57.152;-2.118;2022-09-27T15:04:28;0.60;;;0.20;;
27644;SDS011;15054;57.152;-2.118;2022-09-27T15:07:01;1.17;;;0.52;;
27644;SDS011;15054;57.152;-2.118;2022-09-27T15:09:28;0.68;;;0.40;;
27644;SDS011;15054;57.152;-2.118;2022-09-27T15:11:58;0.50;;;0.30;;
27644;SDS011;15054;57.152;-2.118;2022-09-27T15:14:27;1.15;;;0.65;;
27644;SDS011;15054;57.152;-2.118;2022-09-27T15:16:58;1.00;;;0.30;;
27644;SDS011;15054;57.152;-2.118;2022-09-27T15:19:31;3.20;;;0.75;;
27644;SDS011;15054;57.152;-2.118;2022-09-27T15:25:04;1.08;;;0.40;;
27644;SDS011;15054;57.152;-2.118;2022-09-27T15:27:47;3.50;;;0.30;;
27644;SDS011;15054;57.152;-2.118;2022-09-27T15:30:23;0.82;;;0.38;;
27644;SDS011;15054;57.152;-2.118;2022-09-27T15:32:56;0.68;;;0.63;;
27644;SDS011;15054;57.152;-2.118;2022-09-27T15:35:27;1.95;;;0.55;;
27644;SDS011;15054;57.152;-2.118;2022-09-27T15:43:42;0.60;;;0.30;;
27644;SDS011;15054;57.152;-2.118;2022-09-27T15:49:17;1.40;;;0.98;;
27644;SDS011;15054;57.152;-2.118;2022-09-27T15:51:49;1.20;;;0.63;;
27644;SDS011;15054;57.152;-2.118;2022-09-27T15:54:18;2.78;;;0.60;;
27644;SDS011;15054;57.152;-2.118;2022-09-27T15:56:47;2.78;;;0.90;;
27644;SDS011;15054;57.152;-2.118;2022-09-27T15:59:24;5.43;;;3.30;;
27644;SDS011;15054;57.152;-2.118;2022-09-27T16:01:54;2.20;;;0.90;;
27644;SDS011;15054;57.152;-2.118;2022-09-27T16:04:30;4.43;;;2.40;;
27644;SDS011;15054;57.152;-2.118;2022-09-27T16:06:59;2.90;;;1.20;;
27644;SDS011;15054;57.152;-2.118;2022-09-27T16:09:27;2.42;;;0.73;;
27644;SDS011;15054;57.152;-2.118;2022-09-27T16:11:55;2.65;;;1.10;;
27644;SDS011;15054;57.152;-2.118;2022-09-27T16:14:22;2.63;;;0.68;;
27644;SDS011;15054;57.152;-2.118;2022-09-27T16:16:50;2.53;;;1.20;;
27644;SDS011;15054;57.152;-2.118;2022-09-27T16:19:19;1.55;;;0.60;;
27644;SDS011;15054;57.152;-2.118;2022-09-27T16:21:47;1.80;;;0.50;;
27644;SDS011;15054;57.152;-2.118;2022-09-27T16:24:15;1.55;;;0.30;;
27644;SDS011;15054;57.152;-2.118;2022-09-27T16:26:45;1.17;;;0.40;;
27644;SDS011;15054;57.152;-2.118;2022-09-27T16:29:12;1.98;;;0.50;;
27644;SDS011;15054;57.152;-2.118;2022-09-27T16:31:41;6.25;;;2.05;;
27644;SDS011;15054;57.152;-2.118;2022-09-27T16:34:10;1.90;;;1.23;;
27644;SDS011;15054;57.152;-2.118;2022-09-27T16:36:37;4.18;;;2.97;;
27644;SDS011;15054;57.152;-2.118;2022-09-27T16:39:05;1.55;;;1.25;;
27644;SDS011;15054;57.152;-2.118;2022-09-27T16:41:36;3.22;;;1.17;;
27644;SDS011;15054;57.152;-2.118;2022-09-27T16:44:07;4.32;;;1.23;;
27644;SDS011;15054;57.152;-2.118;2022-09-27T16:46:39;1.90;;;0.70;;
27644;SDS011;15054;57.152;-2.118;2022-09-27T16:49:12;0.73;;;0.45;;
27644;SDS011;15054;57.152;-2.118;2022-09-27T16:51:58;2.70;;;0.63;;
27644;SDS011;15054;57.152;-2.118;2022-09-27T16:54:28;1.08;;;0.88;;
27644;SDS011;15054;57.152;-2.118;2022-09-27T16:56:56;2.90;;;1.00;;
27644;SDS011;15054;57.152;-2.118;2022-09-27T16:59:24;2.03;;;1.20;;
27644;SDS011;15054;57.152;-2.118;2022-09-27T17:01:52;2.60;;;1.23;;
27644;SDS011;15054;57.152;-2.118;2022-09-27T17:04:24;1.58;;;0.57;;
27644;SDS011;15054;57.152;-2.118;2022-09-27T17:06:55;1.65;;;0.70;;
27644;SDS011;15054;57.152;-2.118;2022-09-27T17:09:23;14.88;;;0.90;;
27644;SDS011;15054;57.152;-2.118;2022-09-27T17:11:50;16.55;;;1.13;;
27644;SDS011;15054;57.152;-2.118;2022-09-27T17:14:18;23.05;;;1.33;;
27644;SDS011;15054;57.152;-2.118;2022-09-27T17:16:46;1.48;;;0.60;;
27644;SDS011;15054;57.152;-2.118;2022-09-27T17:19:14;2.20;;;0.60;;
27644;SDS011;15054;57.152;-2.118;2022-09-27T17:21:43;1.65;;;0.70;;
27644;SDS011;15054;57.152;-2.118;2022-09-27T17:24:11;2.25;;;0.70;;
27644;SDS011;15054;57.152;-2.118;2022-09-27T17:26:38;3.97;;;0.57;;
27644;SDS011;15054;57.152;-2.118;2022-09-27T17:29:06;1.65;;;0.60;;
27644;SDS011;15054;57.152;-2.118;2022-09-27T17:31:35;1.13;;;1.02;;
27644;SDS011;15054;57.152;-2.118;2022-09-27T17:34:04;1.02;;;0.77;;
27644;SDS011;15054;57.152;-2.118;2022-09-27T17:36:32;1.33;;;0.88;;
27644;SDS011;15054;57.152;-2.118;2022-09-27T17:39:00;2.15;;;0.77;;
27644;SDS011;15054;57.152;-2.118;2022-09-27T17:41:27;0.82;;;0.70;;
27644;SDS011;15054;57.152;-2.118;2022-09-27T17:43:56;1.05;;;0.60;;
27644;SDS011;15054;57.152;-2.118;2022-09-27T17:46:27;1.50;;;0.70;;
27644;SDS011;15054;57.152;-2.118;2022-09-27T17:48:56;4.47;;;1.02;;
27644;SDS011;15054;57.152;-2.118;2022-09-27T17:51:45;1.80;;;1.00;;
27644;SDS011;15054;57.152;-2.118;2022-09-27T17:54:14;1.23;;;0.65;;
27644;SDS011;15054;57.152;-2.118;2022-09-27T17:56:44;0.95;;;0.55;;
27644;SDS011;15054;57.152;-2.118;2022-09-27T17:59:12;4.63;;;0.82;;
27644;SDS011;15054;57.152;-2.118;2022-09-27T18:01:42;1.73;;;0.63;;
27644;SDS011;15054;57.152;-2.118;2022-09-27T18:04:11;2.22;;;0.75;;
27644;SDS011;15054;57.152;-2.118;2022-09-27T18:06:41;3.60;;;1.25;;
27644;SDS011;15054;57.152;-2.118;2022-09-27T18:09:10;4.30;;;1.50;;
27644;SDS011;15054;57.152;-2.118;2022-09-27T18:11:39;6.95;;;4.05;;
27644;SDS011;15054;57.152;-2.118;2022-09-27T18:14:06;11.90;;;6.03;;
27644;SDS011;15054;57.152;-2.118;2022-09-27T18:16:36;6.50;;;4.07;;
27644;SDS011;15054;57.152;-2.118;2022-09-27T18:19:09;11.27;;;6.38;;
27644;SDS011;15054;57.152;-2.118;2022-09-27T18:21:38;12.40;;;6.93;;
27644;SDS011;15054;57.152;-2.118;2022-09-27T18:24:06;12.75;;;8.25;;
27644;SDS011;15054;57.152;-2.118;2022-09-27T18:26:36;8.23;;;5.85;;
27644;SDS011;15054;57.152;-2.118;2022-09-27T18:29:11;7.22;;;4.57;;
27644;SDS011;15054;57.152;-2.118;2022-09-27T18:31:40;7.88;;;4.30;;
27644;SDS011;15054;57.152;-2.118;2022-09-27T18:34:14;4.55;;;3.47;;
27644;SDS011;15054;57.152;-2.118;2022-09-27T18:36:42;5.75;;;3.65;;